sensor_id;sensor_type;location;lat;lon;timestamp;P1;durP1;ratioP1;P2;durP2;ratioP2
73675;SDS011;61975;48.660;10.164;2022-09-25T00:01:22;33.73;;;16.90;;
73675;SDS011;61975;48.660;10.164;2022-09-25T00:03:48;30.42;;;17.75;;
73675;SDS011;61975;48.660;10.164;2022-09-25T00:06:15;28.83;;;16.97;;
73675;SDS011;61975;48.660;10.164;2022-09-25T00:08:42;31.67;;;17.35;;
73675;SDS011;61975;48.660;10.164;2022-09-25T00:11:13;30.98;;;16.67;;
73675;SDS011;61975;48.660;10.164;2022-09-25T00:13:40;28.13;;;16.05;;
73675;SDS011;61975;48.660;10.164;2022-09-25T00:16:11;30.80;;;16.57;;
73675;SDS011;61975;48.660;10.164;2022-09-25T00:18:39;32.35;;;17.38;;
73675;SDS011;61975;48.660;10.164;2022-09-25T00:21:23;30.85;;;16.50;;
73675;SDS011;61975;48.660;10.164;2022-09-25T00:23:53;49.20;;;17.05;;
73675;SDS011;61975;48.660;10.164;2022-09-25T00:26:19;34.03;;;17.23;;
73675;SDS011;61975;48.660;10.164;2022-09-25T00:28:44;32.83;;;17.02;;
73675;SDS011;61975;48.660;10.164;2022-09-25T00:31:10;34.60;;;16.57;;
73675;SDS011;61975;48.660;10.164;2022-09-25T00:33:42;33.75;;;16.65;;
73675;SDS011;61975;48.660;10.164;2022-09-25T00:36:08;31.37;;;15.67;;
73675;SDS011;61975;48.660;10.164;2022-09-25T00:38:35;30.87;;;15.37;;
73675;SDS011;61975;48.660;10.164;2022-09-25T00:41:02;30.45;;;15.48;;
73675;SDS011;61975;48.660;10.164;2022-09-25T00:46:01;28.05;;;14.52;;
73675;SDS011;61975;48.660;10.164;2022-09-25T00:48:31;28.30;;;14.68;;
73675;SDS011;61975;48.660;10.164;2022-09-25T00:50:57;23.43;;;12.97;;
73675;SDS011;61975;48.660;10.164;2022-09-25T00:53:27;23.50;;;12.80;;
73675;SDS011;61975;48.660;10.164;2022-09-25T00:55:58;22.20;;;12.10;;
73675;SDS011;61975;48.660;10.164;2022-09-25T00:58:26;22.40;;;11.90;;
73675;SDS011;61975;48.660;10.164;2022-09-25T01:00:54;23.23;;;12.20;;
73675;SDS011;61975;48.660;10.164;2022-09-25T01:03:20;21.13;;;11.33;;
73675;SDS011;61975;48.660;10.164;2022-09-25T01:05:46;21.70;;;11.73;;
73675;SDS011;61975;48.660;10.164;2022-09-25T01:08:15;20.88;;;11.40;;
73675;SDS011;61975;48.660;10.164;2022-09-25T01:10:45;21.80;;;11.30;;
73675;SDS011;61975;48.660;10.164;2022-09-25T01:13:11;20.97;;;11.60;;
73675;SDS011;61975;48.660;10.164;2022-09-25T01:15:57;21.17;;;11.45;;
73675;SDS011;61975;48.660;10.164;2022-09-25T01:18:41;19.60;;;10.60;;
73675;SDS011;61975;48.660;10.164;2022-09-25T01:29:38;16.80;;;9.43;;
73675;SDS011;61975;48.660;10.164;2022-09-25T01:32:32;18.60;;;10.10;;
73675;SDS011;61975;48.660;10.164;2022-09-25T01:35:00;17.50;;;9.90;;
73675;SDS011;61975;48.660;10.164;2022-09-25T01:37:37;18.63;;;10.27;;
73675;SDS011;61975;48.660;10.164;2022-09-25T01:40:15;19.23;;;10.60;;
73675;SDS011;61975;48.660;10.164;2022-09-25T01:45:55;20.48;;;10.70;;
73675;SDS011;61975;48.660;10.164;2022-09-25T01:48:26;19.55;;;10.70;;
73675;SDS011;61975;48.660;10.164;2022-09-25T01:53:27;21.10;;;10.95;;
73675;SDS011;61975;48.660;10.164;2022-09-25T01:56:00;19.02;;;10.45;;
73675;SDS011;61975;48.660;10.164;2022-09-25T01:58:32;20.90;;;11.23;;
73675;SDS011;61975;48.660;10.164;2022-09-25T02:01:10;20.52;;;10.95;;
73675;SDS011;61975;48.660;10.164;2022-09-25T02:03:41;19.83;;;11.10;;
73675;SDS011;61975;48.660;10.164;2022-09-25T02:06:12;20.70;;;10.52;;
73675;SDS011;61975;48.660;10.164;2022-09-25T02:08:45;22.48;;;11.82;;
73675;SDS011;61975;48.660;10.164;2022-09-25T02:11:32;20.42;;;11.02;;
73675;SDS011;61975;48.660;10.164;2022-09-25T02:14:08;21.40;;;11.27;;
73675;SDS011;61975;48.660;10.164;2022-09-25T02:16:42;20.80;;;11.67;;
73675;SDS011;61975;48.660;10.164;2022-09-25T02:19:11;22.67;;;11.90;;
73675;SDS011;61975;48.660;10.164;2022-09-25T02:22:18;23.63;;;11.82;;
73675;SDS011;61975;48.660;10.164;2022-09-25T02:27:25;23.60;;;12.30;;
73675;SDS011;61975;48.660;10.164;2022-09-25T02:29:51;19.90;;;10.53;;
73675;SDS011;61975;48.660;10.164;2022-09-25T02:32:18;21.52;;;11.70;;
73675;SDS011;61975;48.660;10.164;2022-09-25T02:34:46;21.40;;;11.18;;
73675;SDS011;61975;48.660;10.164;2022-09-25T02:37:13;19.90;;;10.38;;
73675;SDS011;61975;48.660;10.164;2022-09-25T02:39:39;19.58;;;11.05;;
73675;SDS011;61975;48.660;10.164;2022-09-25T02:44:53;20.90;;;11.13;;
73675;SDS011;61975;48.660;10.164;2022-09-25T02:47:31;21.45;;;11.32;;
73675;SDS011;61975;48.660;10.164;2022-09-25T02:55:02;21.07;;;11.40;;
73675;SDS011;61975;48.660;10.164;2022-09-25T02:57:42;21.70;;;11.43;;
73675;SDS011;61975;48.660;10.164;2022-09-25T03:00:13;21.33;;;11.90;;
73675;SDS011;61975;48.660;10.164;2022-09-25T03:02:39;19.35;;;10.63;;
73675;SDS011;61975;48.660;10.164;2022-09-25T03:05:07;21.02;;;11.43;;
73675;SDS011;61975;48.660;10.164;2022-09-25T03:07:36;20.45;;;11.10;;
73675;SDS011;61975;48.660;10.164;2022-09-25T03:10:21;22.05;;;11.65;;
73675;SDS011;61975;48.660;10.164;2022-09-25T03:12:47;18.73;;;9.57;;
73675;SDS011;61975;48.660;10.164;2022-09-25T03:15:13;19.23;;;10.52;;
73675;SDS011;61975;48.660;10.164;2022-09-25T03:17:38;18.33;;;9.73;;
73675;SDS011;61975;48.660;10.164;2022-09-25T03:20:04;18.43;;;9.77;;
73675;SDS011;61975;48.660;10.164;2022-09-25T03:22:34;19.13;;;9.82;;
73675;SDS011;61975;48.660;10.164;2022-09-25T03:24:59;19.27;;;10.73;;
73675;SDS011;61975;48.660;10.164;2022-09-25T03:27:25;22.40;;;11.40;;
73675;SDS011;61975;48.660;10.164;2022-09-25T03:29:52;20.10;;;11.30;;
73675;SDS011;61975;48.660;10.164;2022-09-25T03:32:19;19.17;;;10.95;;
73675;SDS011;61975;48.660;10.164;2022-09-25T03:34:45;20.13;;;10.88;;
73675;SDS011;61975;48.660;10.164;2022-09-25T03:37:10;19.13;;;10.53;;
73675;SDS011;61975;48.660;10.164;2022-09-25T03:39:35;19.20;;;10.93;;
73675;SDS011;61975;48.660;10.164;2022-09-25T03:42:01;21.37;;;11.03;;
73675;SDS011;61975;48.660;10.164;2022-09-25T03:44:26;20.80;;;10.60;;
73675;SDS011;61975;48.660;10.164;2022-09-25T03:46:51;20.93;;;11.33;;
73675;SDS011;61975;48.660;10.164;2022-09-25T03:49:17;20.83;;;11.27;;
73675;SDS011;61975;48.660;10.164;2022-09-25T03:51:42;20.50;;;11.70;;
73675;SDS011;61975;48.660;10.164;2022-09-25T03:54:08;19.50;;;9.73;;
73675;SDS011;61975;48.660;10.164;2022-09-25T03:56:33;17.53;;;9.50;;
73675;SDS011;61975;48.660;10.164;2022-09-25T03:58:58;16.57;;;9.67;;
73675;SDS011;61975;48.660;10.164;2022-09-25T04:01:24;17.13;;;9.25;;
73675;SDS011;61975;48.660;10.164;2022-09-25T04:03:51;16.50;;;9.23;;
73675;SDS011;61975;48.660;10.164;2022-09-25T04:06:17;16.15;;;8.93;;
73675;SDS011;61975;48.660;10.164;2022-09-25T04:08:46;16.85;;;9.05;;
73675;SDS011;61975;48.660;10.164;2022-09-25T04:11:12;16.87;;;9.23;;
73675;SDS011;61975;48.660;10.164;2022-09-25T04:13:39;16.07;;;9.00;;
73675;SDS011;61975;48.660;10.164;2022-09-25T04:16:08;17.02;;;9.50;;
73675;SDS011;61975;48.660;10.164;2022-09-25T04:18:33;16.35;;;9.07;;
73675;SDS011;61975;48.660;10.164;2022-09-25T04:20:59;15.37;;;8.37;;
73675;SDS011;61975;48.660;10.164;2022-09-25T04:23:26;16.60;;;9.02;;
73675;SDS011;61975;48.660;10.164;2022-09-25T04:25:52;17.00;;;9.57;;
73675;SDS011;61975;48.660;10.164;2022-09-25T04:28:18;18.08;;;9.50;;
73675;SDS011;61975;48.660;10.164;2022-09-25T04:30:45;18.42;;;10.25;;
73675;SDS011;61975;48.660;10.164;2022-09-25T04:33:10;18.60;;;10.73;;
73675;SDS011;61975;48.660;10.164;2022-09-25T04:35:54;19.75;;;10.35;;
73675;SDS011;61975;48.660;10.164;2022-09-25T04:38:20;19.23;;;10.13;;
73675;SDS011;61975;48.660;10.164;2022-09-25T04:40:46;18.00;;;9.60;;
73675;SDS011;61975;48.660;10.164;2022-09-25T04:43:11;17.93;;;9.93;;
73675;SDS011;61975;48.660;10.164;2022-09-25T04:45:37;18.08;;;9.85;;
73675;SDS011;61975;48.660;10.164;2022-09-25T04:48:02;19.67;;;10.47;;
73675;SDS011;61975;48.660;10.164;2022-09-25T04:50:28;18.52;;;9.70;;
73675;SDS011;61975;48.660;10.164;2022-09-25T04:52:57;16.70;;;9.37;;
73675;SDS011;61975;48.660;10.164;2022-09-25T04:55:24;19.30;;;10.05;;
73675;SDS011;61975;48.660;10.164;2022-09-25T04:57:58;17.15;;;9.50;;
73675;SDS011;61975;48.660;10.164;2022-09-25T05:00:27;15.48;;;8.82;;
73675;SDS011;61975;48.660;10.164;2022-09-25T05:02:55;16.38;;;8.63;;
73675;SDS011;61975;48.660;10.164;2022-09-25T05:05:21;13.83;;;8.00;;
73675;SDS011;61975;48.660;10.164;2022-09-25T05:07:52;15.07;;;8.53;;
73675;SDS011;61975;48.660;10.164;2022-09-25T05:10:21;13.50;;;7.82;;
73675;SDS011;61975;48.660;10.164;2022-09-25T05:13:01;13.73;;;8.07;;
73675;SDS011;61975;48.660;10.164;2022-09-25T05:15:28;13.30;;;7.43;;
73675;SDS011;61975;48.660;10.164;2022-09-25T05:18:05;12.32;;;7.13;;
73675;SDS011;61975;48.660;10.164;2022-09-25T05:20:35;10.83;;;6.67;;
73675;SDS011;61975;48.660;10.164;2022-09-25T05:23:01;12.68;;;7.47;;
73675;SDS011;61975;48.660;10.164;2022-09-25T05:25:28;13.32;;;7.97;;
73675;SDS011;61975;48.660;10.164;2022-09-25T05:27:56;13.87;;;7.93;;
73675;SDS011;61975;48.660;10.164;2022-09-25T05:30:22;12.88;;;7.55;;
73675;SDS011;61975;48.660;10.164;2022-09-25T05:32:49;13.15;;;7.68;;
73675;SDS011;61975;48.660;10.164;2022-09-25T05:35:19;13.50;;;7.55;;
73675;SDS011;61975;48.660;10.164;2022-09-25T05:37:46;12.98;;;8.02;;
73675;SDS011;61975;48.660;10.164;2022-09-25T05:40:12;13.10;;;7.63;;
73675;SDS011;61975;48.660;10.164;2022-09-25T05:42:42;14.45;;;7.63;;
73675;SDS011;61975;48.660;10.164;2022-09-25T05:45:08;11.60;;;7.13;;
73675;SDS011;61975;48.660;10.164;2022-09-25T05:47:44;11.25;;;6.53;;
73675;SDS011;61975;48.660;10.164;2022-09-25T05:50:10;10.77;;;6.10;;
73675;SDS011;61975;48.660;10.164;2022-09-25T05:52:37;11.80;;;6.05;;
73675;SDS011;61975;48.660;10.164;2022-09-25T05:55:04;10.40;;;6.30;;
73675;SDS011;61975;48.660;10.164;2022-09-25T05:57:33;10.43;;;5.95;;
73675;SDS011;61975;48.660;10.164;2022-09-25T05:59:59;12.00;;;7.15;;
73675;SDS011;61975;48.660;10.164;2022-09-25T06:02:25;13.32;;;7.32;;
73675;SDS011;61975;48.660;10.164;2022-09-25T06:04:51;13.07;;;7.83;;
73675;SDS011;61975;48.660;10.164;2022-09-25T06:07:17;14.67;;;7.70;;
73675;SDS011;61975;48.660;10.164;2022-09-25T06:09:42;13.15;;;8.02;;
73675;SDS011;61975;48.660;10.164;2022-09-25T06:12:07;13.80;;;7.50;;
73675;SDS011;61975;48.660;10.164;2022-09-25T06:14:33;11.70;;;7.43;;
73675;SDS011;61975;48.660;10.164;2022-09-25T06:17:01;12.57;;;7.15;;
73675;SDS011;61975;48.660;10.164;2022-09-25T06:19:27;13.37;;;7.60;;
73675;SDS011;61975;48.660;10.164;2022-09-25T06:21:54;12.15;;;6.75;;
73675;SDS011;61975;48.660;10.164;2022-09-25T06:24:20;12.65;;;6.90;;
73675;SDS011;61975;48.660;10.164;2022-09-25T06:26:45;10.23;;;6.70;;
73675;SDS011;61975;48.660;10.164;2022-09-25T06:29:11;11.30;;;7.13;;
73675;SDS011;61975;48.660;10.164;2022-09-25T06:31:36;10.63;;;6.70;;
73675;SDS011;61975;48.660;10.164;2022-09-25T06:34:03;9.75;;;6.03;;
73675;SDS011;61975;48.660;10.164;2022-09-25T06:36:28;9.87;;;6.17;;
73675;SDS011;61975;48.660;10.164;2022-09-25T06:38:54;9.80;;;5.73;;
73675;SDS011;61975;48.660;10.164;2022-09-25T06:41:20;10.45;;;5.90;;
73675;SDS011;61975;48.660;10.164;2022-09-25T06:43:49;9.95;;;5.97;;
73675;SDS011;61975;48.660;10.164;2022-09-25T06:46:15;10.80;;;6.15;;
73675;SDS011;61975;48.660;10.164;2022-09-25T06:48:44;9.43;;;5.87;;
73675;SDS011;61975;48.660;10.164;2022-09-25T06:51:15;10.77;;;6.38;;
73675;SDS011;61975;48.660;10.164;2022-09-25T06:53:42;10.00;;;6.45;;
73675;SDS011;61975;48.660;10.164;2022-09-25T06:56:08;11.10;;;6.80;;
73675;SDS011;61975;48.660;10.164;2022-09-25T06:58:33;11.80;;;7.40;;
73675;SDS011;61975;48.660;10.164;2022-09-25T07:01:00;10.40;;;7.13;;
73675;SDS011;61975;48.660;10.164;2022-09-25T07:03:25;11.17;;;7.10;;
73675;SDS011;61975;48.660;10.164;2022-09-25T07:06:10;10.48;;;6.90;;
73675;SDS011;61975;48.660;10.164;2022-09-25T07:08:38;11.02;;;7.00;;
73675;SDS011;61975;48.660;10.164;2022-09-25T07:11:04;11.27;;;6.93;;
73675;SDS011;61975;48.660;10.164;2022-09-25T07:13:30;14.27;;;8.43;;
73675;SDS011;61975;48.660;10.164;2022-09-25T07:16:04;13.23;;;7.72;;
73675;SDS011;61975;48.660;10.164;2022-09-25T07:18:31;12.13;;;7.40;;
73675;SDS011;61975;48.660;10.164;2022-09-25T07:21:07;11.93;;;6.93;;
73675;SDS011;61975;48.660;10.164;2022-09-25T07:23:34;11.20;;;6.30;;
73675;SDS011;61975;48.660;10.164;2022-09-25T07:26:19;13.13;;;7.30;;
73675;SDS011;61975;48.660;10.164;2022-09-25T07:28:58;10.95;;;6.95;;
73675;SDS011;61975;48.660;10.164;2022-09-25T07:31:29;12.17;;;7.20;;
73675;SDS011;61975;48.660;10.164;2022-09-25T07:33:57;10.18;;;6.45;;
73675;SDS011;61975;48.660;10.164;2022-09-25T07:36:24;12.52;;;7.18;;
73675;SDS011;61975;48.660;10.164;2022-09-25T07:38:52;11.10;;;6.57;;
73675;SDS011;61975;48.660;10.164;2022-09-25T07:41:18;10.80;;;6.82;;
73675;SDS011;61975;48.660;10.164;2022-09-25T07:43:49;11.55;;;6.80;;
73675;SDS011;61975;48.660;10.164;2022-09-25T07:46:25;10.70;;;6.07;;
73675;SDS011;61975;48.660;10.164;2022-09-25T07:48:52;10.43;;;6.03;;
73675;SDS011;61975;48.660;10.164;2022-09-25T07:51:18;10.70;;;6.10;;
73675;SDS011;61975;48.660;10.164;2022-09-25T07:53:46;10.18;;;6.00;;
73675;SDS011;61975;48.660;10.164;2022-09-25T07:56:11;10.63;;;6.13;;
73675;SDS011;61975;48.660;10.164;2022-09-25T07:58:37;10.85;;;6.20;;
73675;SDS011;61975;48.660;10.164;2022-09-25T08:01:04;9.63;;;5.93;;
73675;SDS011;61975;48.660;10.164;2022-09-25T08:03:31;10.52;;;6.00;;
73675;SDS011;61975;48.660;10.164;2022-09-25T08:08:23;11.38;;;6.00;;
73675;SDS011;61975;48.660;10.164;2022-09-25T08:10:49;11.63;;;6.70;;
73675;SDS011;61975;48.660;10.164;2022-09-25T08:13:15;13.73;;;7.18;;
73675;SDS011;61975;48.660;10.164;2022-09-25T08:15:44;11.30;;;6.65;;
73675;SDS011;61975;48.660;10.164;2022-09-25T08:18:10;11.93;;;6.53;;
73675;SDS011;61975;48.660;10.164;2022-09-25T08:20:35;13.13;;;6.77;;
73675;SDS011;61975;48.660;10.164;2022-09-25T08:23:04;14.93;;;6.57;;
73675;SDS011;61975;48.660;10.164;2022-09-25T08:25:29;10.15;;;5.57;;
73675;SDS011;61975;48.660;10.164;2022-09-25T08:27:55;11.83;;;6.93;;
73675;SDS011;61975;48.660;10.164;2022-09-25T08:30:20;11.00;;;6.30;;
73675;SDS011;61975;48.660;10.164;2022-09-25T08:32:46;11.17;;;6.30;;
73675;SDS011;61975;48.660;10.164;2022-09-25T08:35:11;12.43;;;6.47;;
73675;SDS011;61975;48.660;10.164;2022-09-25T08:37:40;10.85;;;6.35;;
73675;SDS011;61975;48.660;10.164;2022-09-25T08:40:11;9.68;;;6.07;;
73675;SDS011;61975;48.660;10.164;2022-09-25T08:42:42;9.30;;;5.60;;
73675;SDS011;61975;48.660;10.164;2022-09-25T08:45:15;9.98;;;6.15;;
73675;SDS011;61975;48.660;10.164;2022-09-25T08:48:06;9.57;;;6.30;;
73675;SDS011;61975;48.660;10.164;2022-09-25T08:50:58;10.02;;;6.38;;
73675;SDS011;61975;48.660;10.164;2022-09-25T08:53:29;9.98;;;6.00;;
73675;SDS011;61975;48.660;10.164;2022-09-25T08:55:55;7.90;;;4.80;;
73675;SDS011;61975;48.660;10.164;2022-09-25T08:58:43;8.75;;;5.22;;
73675;SDS011;61975;48.660;10.164;2022-09-25T09:01:16;10.13;;;7.00;;
73675;SDS011;61975;48.660;10.164;2022-09-25T09:03:56;10.65;;;7.60;;
73675;SDS011;61975;48.660;10.164;2022-09-25T09:06:29;31.23;;;28.03;;
73675;SDS011;61975;48.660;10.164;2022-09-25T09:09:01;15.45;;;11.45;;
73675;SDS011;61975;48.660;10.164;2022-09-25T09:11:55;8.43;;;5.13;;
73675;SDS011;61975;48.660;10.164;2022-09-25T09:14:31;8.80;;;4.95;;
73675;SDS011;61975;48.660;10.164;2022-09-25T09:17:05;8.93;;;5.30;;
73675;SDS011;61975;48.660;10.164;2022-09-25T09:19:41;8.57;;;5.10;;
73675;SDS011;61975;48.660;10.164;2022-09-25T09:22:10;7.82;;;4.55;;
73675;SDS011;61975;48.660;10.164;2022-09-25T09:24:58;7.60;;;4.80;;
73675;SDS011;61975;48.660;10.164;2022-09-25T09:54:12;7.70;;;4.45;;
73675;SDS011;61975;48.660;10.164;2022-09-25T09:56:45;8.65;;;4.82;;
73675;SDS011;61975;48.660;10.164;2022-09-25T09:59:15;8.13;;;4.60;;
73675;SDS011;61975;48.660;10.164;2022-09-25T10:01:43;8.27;;;4.80;;
73675;SDS011;61975;48.660;10.164;2022-09-25T10:04:25;7.80;;;4.80;;
73675;SDS011;61975;48.660;10.164;2022-09-25T10:07:08;7.45;;;4.00;;
73675;SDS011;61975;48.660;10.164;2022-09-25T10:09:38;6.78;;;4.07;;
73675;SDS011;61975;48.660;10.164;2022-09-25T10:12:14;6.90;;;4.13;;
73675;SDS011;61975;48.660;10.164;2022-09-25T10:14:57;7.15;;;4.22;;
73675;SDS011;61975;48.660;10.164;2022-09-25T10:17:27;8.02;;;4.00;;
73675;SDS011;61975;48.660;10.164;2022-09-25T10:20:04;6.50;;;3.93;;
73675;SDS011;61975;48.660;10.164;2022-09-25T10:22:39;6.25;;;3.80;;
73675;SDS011;61975;48.660;10.164;2022-09-25T10:25:08;6.47;;;3.70;;
73675;SDS011;61975;48.660;10.164;2022-09-25T10:27:35;9.07;;;3.87;;
73675;SDS011;61975;48.660;10.164;2022-09-25T10:35:43;5.78;;;3.50;;
73675;SDS011;61975;48.660;10.164;2022-09-25T10:41:15;5.60;;;3.47;;
73675;SDS011;61975;48.660;10.164;2022-09-25T10:43:59;7.40;;;4.18;;
73675;SDS011;61975;48.660;10.164;2022-09-25T10:46:35;7.13;;;3.88;;
73675;SDS011;61975;48.660;10.164;2022-09-25T10:49:20;6.20;;;4.00;;
73675;SDS011;61975;48.660;10.164;2022-09-25T10:52:06;6.53;;;3.78;;
73675;SDS011;61975;48.660;10.164;2022-09-25T10:54:34;7.30;;;3.80;;
73675;SDS011;61975;48.660;10.164;2022-09-25T11:00:00;6.05;;;3.85;;
73675;SDS011;61975;48.660;10.164;2022-09-25T11:05:02;5.70;;;3.80;;
73675;SDS011;61975;48.660;10.164;2022-09-25T11:07:31;6.17;;;3.70;;
73675;SDS011;61975;48.660;10.164;2022-09-25T11:09:57;7.20;;;4.80;;
73675;SDS011;61975;48.660;10.164;2022-09-25T11:12:24;7.43;;;4.95;;
73675;SDS011;61975;48.660;10.164;2022-09-25T11:14:53;7.60;;;4.50;;
73675;SDS011;61975;48.660;10.164;2022-09-25T11:17:41;6.03;;;4.22;;
73675;SDS011;61975;48.660;10.164;2022-09-25T11:22:40;7.07;;;4.00;;
73675;SDS011;61975;48.660;10.164;2022-09-25T11:25:45;6.63;;;3.83;;
73675;SDS011;61975;48.660;10.164;2022-09-25T11:37:00;5.78;;;3.20;;
73675;SDS011;61975;48.660;10.164;2022-09-25T11:39:49;7.15;;;3.97;;
73675;SDS011;61975;48.660;10.164;2022-09-25T11:47:47;4.90;;;3.13;;
73675;SDS011;61975;48.660;10.164;2022-09-25T11:50:21;5.18;;;3.20;;
73675;SDS011;61975;48.660;10.164;2022-09-25T11:53:03;6.18;;;3.47;;
73675;SDS011;61975;48.660;10.164;2022-09-25T12:04:25;5.95;;;3.20;;
73675;SDS011;61975;48.660;10.164;2022-09-25T12:06:58;5.47;;;3.28;;
73675;SDS011;61975;48.660;10.164;2022-09-25T12:10:17;4.97;;;3.08;;
73675;SDS011;61975;48.660;10.164;2022-09-25T12:20:38;4.70;;;2.70;;
73675;SDS011;61975;48.660;10.164;2022-09-25T12:24:03;5.13;;;2.72;;
73675;SDS011;61975;48.660;10.164;2022-09-25T12:32:28;6.13;;;3.50;;
73675;SDS011;61975;48.660;10.164;2022-09-25T12:35:21;7.10;;;3.25;;
73675;SDS011;61975;48.660;10.164;2022-09-25T12:41:02;5.30;;;3.17;;
73675;SDS011;61975;48.660;10.164;2022-09-25T12:43:46;4.90;;;3.10;;
73675;SDS011;61975;48.660;10.164;2022-09-25T12:51:46;4.25;;;2.83;;
73675;SDS011;61975;48.660;10.164;2022-09-25T12:57:16;5.40;;;2.80;;
73675;SDS011;61975;48.660;10.164;2022-09-25T13:00:07;4.35;;;2.90;;
73675;SDS011;61975;48.660;10.164;2022-09-25T13:02:42;5.25;;;3.15;;
73675;SDS011;61975;48.660;10.164;2022-09-25T13:13:25;4.65;;;3.00;;
73675;SDS011;61975;48.660;10.164;2022-09-25T13:15:58;4.22;;;2.70;;
73675;SDS011;61975;48.660;10.164;2022-09-25T13:18:26;5.82;;;3.35;;
73675;SDS011;61975;48.660;10.164;2022-09-25T13:20:54;5.60;;;3.60;;
73675;SDS011;61975;48.660;10.164;2022-09-25T13:23:34;6.00;;;3.70;;
73675;SDS011;61975;48.660;10.164;2022-09-25T13:26:09;5.57;;;3.47;;
73675;SDS011;61975;48.660;10.164;2022-09-25T13:28:39;5.07;;;3.53;;
73675;SDS011;61975;48.660;10.164;2022-09-25T13:31:12;5.80;;;3.47;;
73675;SDS011;61975;48.660;10.164;2022-09-25T13:39:00;6.78;;;4.32;;
73675;SDS011;61975;48.660;10.164;2022-09-25T13:41:54;7.75;;;4.85;;
73675;SDS011;61975;48.660;10.164;2022-09-25T13:50:36;8.80;;;4.50;;
73675;SDS011;61975;48.660;10.164;2022-09-25T14:00:19;7.70;;;5.18;;
73675;SDS011;61975;48.660;10.164;2022-09-25T14:02:45;7.40;;;4.90;;
73675;SDS011;61975;48.660;10.164;2022-09-25T14:05:18;7.82;;;4.72;;
73675;SDS011;61975;48.660;10.164;2022-09-25T14:07:50;9.02;;;4.93;;
73675;SDS011;61975;48.660;10.164;2022-09-25T14:10:22;8.10;;;5.00;;
73675;SDS011;61975;48.660;10.164;2022-09-25T14:12:49;7.95;;;4.75;;
73675;SDS011;61975;48.660;10.164;2022-09-25T14:18:06;8.98;;;4.97;;
73675;SDS011;61975;48.660;10.164;2022-09-25T14:20:41;6.50;;;4.82;;
73675;SDS011;61975;48.660;10.164;2022-09-25T14:26:18;8.07;;;5.05;;
73675;SDS011;61975;48.660;10.164;2022-09-25T14:28:45;8.60;;;5.50;;
73675;SDS011;61975;48.660;10.164;2022-09-25T14:48:36;8.55;;;5.25;;
73675;SDS011;61975;48.660;10.164;2022-09-25T14:51:09;7.70;;;4.88;;
73675;SDS011;61975;48.660;10.164;2022-09-25T14:53:40;7.30;;;4.95;;
73675;SDS011;61975;48.660;10.164;2022-09-25T14:56:10;7.03;;;4.80;;
73675;SDS011;61975;48.660;10.164;2022-09-25T14:58:48;8.13;;;5.25;;
73675;SDS011;61975;48.660;10.164;2022-09-25T15:03:43;7.22;;;5.00;;
73675;SDS011;61975;48.660;10.164;2022-09-25T15:06:12;7.20;;;5.27;;
73675;SDS011;61975;48.660;10.164;2022-09-25T15:08:48;7.90;;;5.18;;
73675;SDS011;61975;48.660;10.164;2022-09-25T15:11:15;8.00;;;4.95;;
73675;SDS011;61975;48.660;10.164;2022-09-25T15:13:42;8.40;;;5.13;;
73675;SDS011;61975;48.660;10.164;2022-09-25T15:16:13;6.85;;;5.05;;
73675;SDS011;61975;48.660;10.164;2022-09-25T15:19:05;7.47;;;5.40;;
73675;SDS011;61975;48.660;10.164;2022-09-25T15:21:39;7.97;;;5.43;;
73675;SDS011;61975;48.660;10.164;2022-09-25T15:24:10;7.03;;;5.50;;
73675;SDS011;61975;48.660;10.164;2022-09-25T15:26:43;6.47;;;5.03;;
73675;SDS011;61975;48.660;10.164;2022-09-25T15:29:16;8.18;;;6.00;;
73675;SDS011;61975;48.660;10.164;2022-09-25T15:31:46;7.95;;;5.88;;
73675;SDS011;61975;48.660;10.164;2022-09-25T15:34:18;9.27;;;6.03;;
73675;SDS011;61975;48.660;10.164;2022-09-25T15:36:51;8.43;;;5.88;;
73675;SDS011;61975;48.660;10.164;2022-09-25T15:39:21;9.00;;;6.07;;
73675;SDS011;61975;48.660;10.164;2022-09-25T15:41:50;7.97;;;5.80;;
73675;SDS011;61975;48.660;10.164;2022-09-25T15:44:23;7.55;;;5.88;;
73675;SDS011;61975;48.660;10.164;2022-09-25T15:46:53;8.65;;;5.78;;
73675;SDS011;61975;48.660;10.164;2022-09-25T15:49:29;7.63;;;6.13;;
73675;SDS011;61975;48.660;10.164;2022-09-25T15:52:06;6.73;;;6.00;;
73675;SDS011;61975;48.660;10.164;2022-09-25T15:55:02;8.30;;;6.15;;
73675;SDS011;61975;48.660;10.164;2022-09-25T15:57:33;8.23;;;6.43;;
73675;SDS011;61975;48.660;10.164;2022-09-25T16:00:03;10.00;;;6.45;;
73675;SDS011;61975;48.660;10.164;2022-09-25T16:02:56;8.77;;;6.50;;
73675;SDS011;61975;48.660;10.164;2022-09-25T16:05:44;8.55;;;7.00;;
73675;SDS011;61975;48.660;10.164;2022-09-25T16:13:42;9.68;;;7.05;;
73675;SDS011;61975;48.660;10.164;2022-09-25T16:18:54;8.73;;;6.80;;
73675;SDS011;61975;48.660;10.164;2022-09-25T16:21:26;9.98;;;7.32;;
73675;SDS011;61975;48.660;10.164;2022-09-25T16:24:03;10.15;;;6.60;;
73675;SDS011;61975;48.660;10.164;2022-09-25T16:26:38;10.20;;;6.82;;
73675;SDS011;61975;48.660;10.164;2022-09-25T16:31:40;10.38;;;7.00;;
73675;SDS011;61975;48.660;10.164;2022-09-25T16:34:14;10.25;;;6.43;;
73675;SDS011;61975;48.660;10.164;2022-09-25T16:36:43;10.40;;;6.97;;
73675;SDS011;61975;48.660;10.164;2022-09-25T16:39:18;10.57;;;7.40;;
73675;SDS011;61975;48.660;10.164;2022-09-25T16:41:46;12.77;;;7.63;;
73675;SDS011;61975;48.660;10.164;2022-09-25T16:44:20;11.00;;;8.00;;
73675;SDS011;61975;48.660;10.164;2022-09-25T16:47:12;14.23;;;7.05;;
73675;SDS011;61975;48.660;10.164;2022-09-25T16:49:45;11.32;;;7.43;;
73675;SDS011;61975;48.660;10.164;2022-09-25T16:52:15;11.38;;;7.40;;
73675;SDS011;61975;48.660;10.164;2022-09-25T16:54:47;10.67;;;7.03;;
73675;SDS011;61975;48.660;10.164;2022-09-25T16:57:17;11.23;;;7.55;;
73675;SDS011;61975;48.660;10.164;2022-09-25T16:59:46;10.93;;;7.30;;
73675;SDS011;61975;48.660;10.164;2022-09-25T17:02:24;10.40;;;6.57;;
73675;SDS011;61975;48.660;10.164;2022-09-25T17:07:44;11.18;;;6.93;;
73675;SDS011;61975;48.660;10.164;2022-09-25T17:10:32;13.85;;;10.15;;
73675;SDS011;61975;48.660;10.164;2022-09-25T17:12:58;16.57;;;12.40;;
73675;SDS011;61975;48.660;10.164;2022-09-25T17:15:30;16.50;;;12.18;;
73675;SDS011;61975;48.660;10.164;2022-09-25T17:17:58;14.93;;;11.48;;
73675;SDS011;61975;48.660;10.164;2022-09-25T17:20:25;16.87;;;13.57;;
73675;SDS011;61975;48.660;10.164;2022-09-25T17:22:55;13.43;;;9.73;;
73675;SDS011;61975;48.660;10.164;2022-09-25T17:25:43;12.95;;;8.63;;
73675;SDS011;61975;48.660;10.164;2022-09-25T17:28:14;12.98;;;9.27;;
73675;SDS011;61975;48.660;10.164;2022-09-25T17:30:41;13.77;;;9.15;;
73675;SDS011;61975;48.660;10.164;2022-09-25T17:33:11;14.77;;;10.03;;
73675;SDS011;61975;48.660;10.164;2022-09-25T17:38:25;13.07;;;9.23;;
73675;SDS011;61975;48.660;10.164;2022-09-25T17:40:51;12.32;;;7.20;;
73675;SDS011;61975;48.660;10.164;2022-09-25T17:43:18;11.23;;;7.82;;
73675;SDS011;61975;48.660;10.164;2022-09-25T17:45:51;10.40;;;6.93;;
73675;SDS011;61975;48.660;10.164;2022-09-25T17:48:22;11.73;;;7.47;;
73675;SDS011;61975;48.660;10.164;2022-09-25T17:50:57;12.02;;;7.88;;
73675;SDS011;61975;48.660;10.164;2022-09-25T17:53:28;12.90;;;7.72;;
73675;SDS011;61975;48.660;10.164;2022-09-25T17:55:56;10.38;;;7.22;;
73675;SDS011;61975;48.660;10.164;2022-09-25T17:58:22;12.47;;;6.87;;